sensor_id;sensor_type;location;lat;lon;timestamp;P1;durP1;ratioP1;P2;durP2;ratioP2
49860;SDS011;35761;48.826;9.238;2022-08-19T00:01:58;13.93;;;11.40;;
49860;SDS011;35761;48.826;9.238;2022-08-19T00:04:27;15.13;;;11.45;;
49860;SDS011;35761;48.826;9.238;2022-08-19T00:06:59;15.75;;;11.85;;
49860;SDS011;35761;48.826;9.238;2022-08-19T00:09:28;17.10;;;11.85;;
49860;SDS011;35761;48.826;9.238;2022-08-19T00:11:58;16.30;;;11.95;;
49860;SDS011;35761;48.826;9.238;2022-08-19T00:14:28;20.05;;;12.55;;
49860;SDS011;35761;48.826;9.238;2022-08-19T00:16:59;16.33;;;11.82;;
49860;SDS011;35761;48.826;9.238;2022-08-19T00:19:29;15.82;;;12.07;;
49860;SDS011;35761;48.826;9.238;2022-08-19T00:21:58;13.95;;;10.55;;
49860;SDS011;35761;48.826;9.238;2022-08-19T00:24:26;14.10;;;11.63;;
49860;SDS011;35761;48.826;9.238;2022-08-19T00:26:56;19.05;;;12.55;;
49860;SDS011;35761;48.826;9.238;2022-08-19T00:29:44;17.20;;;11.63;;
49860;SDS011;35761;48.826;9.238;2022-08-19T00:32:19;15.85;;;11.90;;
49860;SDS011;35761;48.826;9.238;2022-08-19T00:34:49;17.50;;;11.75;;
49860;SDS011;35761;48.826;9.238;2022-08-19T00:37:21;18.30;;;11.85;;
49860;SDS011;35761;48.826;9.238;2022-08-19T00:39:52;17.20;;;12.10;;
49860;SDS011;35761;48.826;9.238;2022-08-19T00:42:22;15.13;;;11.35;;
49860;SDS011;35761;48.826;9.238;2022-08-19T00:44:54;14.55;;;12.10;;
49860;SDS011;35761;48.826;9.238;2022-08-19T00:47:24;15.52;;;12.32;;
49860;SDS011;35761;48.826;9.238;2022-08-19T00:49:53;14.13;;;11.85;;
49860;SDS011;35761;48.826;9.238;2022-08-19T00:52:26;15.35;;;11.68;;
49860;SDS011;35761;48.826;9.238;2022-08-19T00:54:57;21.45;;;12.43;;
49860;SDS011;35761;48.826;9.238;2022-08-19T00:57:28;14.77;;;11.52;;
49860;SDS011;35761;48.826;9.238;2022-08-19T01:00:01;18.15;;;11.02;;
49860;SDS011;35761;48.826;9.238;2022-08-19T01:02:36;17.63;;;12.27;;
49860;SDS011;35761;48.826;9.238;2022-08-19T01:05:05;14.18;;;11.63;;
49860;SDS011;35761;48.826;9.238;2022-08-19T01:07:38;14.48;;;11.40;;
49860;SDS011;35761;48.826;9.238;2022-08-19T01:10:09;18.50;;;12.13;;
49860;SDS011;35761;48.826;9.238;2022-08-19T01:12:44;14.82;;;11.27;;
49860;SDS011;35761;48.826;9.238;2022-08-19T01:15:21;14.68;;;11.45;;
49860;SDS011;35761;48.826;9.238;2022-08-19T01:17:56;16.70;;;11.60;;
49860;SDS011;35761;48.826;9.238;2022-08-19T01:20:27;17.02;;;11.50;;
49860;SDS011;35761;48.826;9.238;2022-08-19T01:22:57;15.18;;;12.25;;
49860;SDS011;35761;48.826;9.238;2022-08-19T01:25:28;14.80;;;11.75;;
49860;SDS011;35761;48.826;9.238;2022-08-19T01:28:07;13.93;;;11.82;;
49860;SDS011;35761;48.826;9.238;2022-08-19T01:30:36;16.42;;;12.18;;
49860;SDS011;35761;48.826;9.238;2022-08-19T01:33:09;20.65;;;12.85;;
49860;SDS011;35761;48.826;9.238;2022-08-19T01:35:38;15.32;;;12.38;;
49860;SDS011;35761;48.826;9.238;2022-08-19T01:38:10;16.20;;;12.23;;
49860;SDS011;35761;48.826;9.238;2022-08-19T01:40:49;18.60;;;12.60;;
49860;SDS011;35761;48.826;9.238;2022-08-19T01:43:18;18.70;;;14.30;;
49860;SDS011;35761;48.826;9.238;2022-08-19T01:45:47;21.45;;;13.35;;
49860;SDS011;35761;48.826;9.238;2022-08-19T01:48:17;18.52;;;13.40;;
49860;SDS011;35761;48.826;9.238;2022-08-19T01:50:45;17.75;;;12.85;;
49860;SDS011;35761;48.826;9.238;2022-08-19T01:53:17;18.63;;;13.63;;
49860;SDS011;35761;48.826;9.238;2022-08-19T01:55:48;19.20;;;14.18;;
49860;SDS011;35761;48.826;9.238;2022-08-19T01:58:18;18.33;;;13.30;;
49860;SDS011;35761;48.826;9.238;2022-08-19T02:00:50;19.67;;;14.25;;
49860;SDS011;35761;48.826;9.238;2022-08-19T02:03:19;20.17;;;14.02;;
49860;SDS011;35761;48.826;9.238;2022-08-19T02:05:47;22.95;;;14.38;;
49860;SDS011;35761;48.826;9.238;2022-08-19T02:08:22;16.55;;;13.88;;
49860;SDS011;35761;48.826;9.238;2022-08-19T02:10:50;17.02;;;13.90;;
49860;SDS011;35761;48.826;9.238;2022-08-19T02:13:19;16.90;;;14.57;;
49860;SDS011;35761;48.826;9.238;2022-08-19T02:15:52;20.80;;;15.07;;
49860;SDS011;35761;48.826;9.238;2022-08-19T02:18:20;19.33;;;15.68;;
49860;SDS011;35761;48.826;9.238;2022-08-19T02:20:53;22.45;;;15.18;;
49860;SDS011;35761;48.826;9.238;2022-08-19T02:23:23;22.17;;;15.43;;
49860;SDS011;35761;48.826;9.238;2022-08-19T02:25:53;20.42;;;15.10;;
49860;SDS011;35761;48.826;9.238;2022-08-19T02:28:22;19.40;;;16.13;;
49860;SDS011;35761;48.826;9.238;2022-08-19T02:30:50;25.33;;;15.82;;
49860;SDS011;35761;48.826;9.238;2022-08-19T02:33:19;16.92;;;15.02;;
49860;SDS011;35761;48.826;9.238;2022-08-19T02:35:47;22.60;;;15.20;;
49860;SDS011;35761;48.826;9.238;2022-08-19T02:38:15;20.60;;;15.75;;
49860;SDS011;35761;48.826;9.238;2022-08-19T02:40:54;24.58;;;16.00;;
49860;SDS011;35761;48.826;9.238;2022-08-19T02:43:26;20.88;;;16.25;;
49860;SDS011;35761;48.826;9.238;2022-08-19T02:46:00;22.67;;;16.60;;
49860;SDS011;35761;48.826;9.238;2022-08-19T02:48:29;22.95;;;16.83;;
49860;SDS011;35761;48.826;9.238;2022-08-19T02:50:59;26.05;;;17.63;;
49860;SDS011;35761;48.826;9.238;2022-08-19T02:53:27;22.80;;;16.83;;
49860;SDS011;35761;48.826;9.238;2022-08-19T02:55:57;25.13;;;18.13;;
49860;SDS011;35761;48.826;9.238;2022-08-19T02:58:26;21.92;;;17.23;;
49860;SDS011;35761;48.826;9.238;2022-08-19T03:00:55;24.05;;;18.60;;
49860;SDS011;35761;48.826;9.238;2022-08-19T03:03:24;27.90;;;17.90;;
49860;SDS011;35761;48.826;9.238;2022-08-19T03:06:02;24.40;;;18.13;;
49860;SDS011;35761;48.826;9.238;2022-08-19T03:08:33;23.00;;;17.85;;
49860;SDS011;35761;48.826;9.238;2022-08-19T03:11:04;22.25;;;17.40;;
49860;SDS011;35761;48.826;9.238;2022-08-19T03:13:32;23.88;;;17.95;;
49860;SDS011;35761;48.826;9.238;2022-08-19T03:16:04;23.17;;;18.02;;
49860;SDS011;35761;48.826;9.238;2022-08-19T03:18:33;25.15;;;17.63;;
49860;SDS011;35761;48.826;9.238;2022-08-19T03:21:02;24.40;;;18.73;;
49860;SDS011;35761;48.826;9.238;2022-08-19T03:23:31;25.35;;;18.98;;
49860;SDS011;35761;48.826;9.238;2022-08-19T03:26:02;25.08;;;18.77;;
49860;SDS011;35761;48.826;9.238;2022-08-19T03:28:42;29.73;;;19.80;;
49860;SDS011;35761;48.826;9.238;2022-08-19T03:31:23;25.60;;;19.17;;
49860;SDS011;35761;48.826;9.238;2022-08-19T03:34:15;30.17;;;19.13;;
49860;SDS011;35761;48.826;9.238;2022-08-19T03:36:47;23.73;;;19.27;;
49860;SDS011;35761;48.826;9.238;2022-08-19T03:39:16;25.92;;;19.33;;
49860;SDS011;35761;48.826;9.238;2022-08-19T03:41:47;23.52;;;19.48;;
49860;SDS011;35761;48.826;9.238;2022-08-19T03:44:37;23.63;;;18.88;;
49860;SDS011;35761;48.826;9.238;2022-08-19T03:47:06;27.42;;;20.23;;
49860;SDS011;35761;48.826;9.238;2022-08-19T03:49:34;26.38;;;20.10;;
49860;SDS011;35761;48.826;9.238;2022-08-19T03:52:03;25.50;;;19.75;;
49860;SDS011;35761;48.826;9.238;2022-08-19T03:54:34;27.73;;;20.60;;
49860;SDS011;35761;48.826;9.238;2022-08-19T03:57:05;24.15;;;18.90;;
49860;SDS011;35761;48.826;9.238;2022-08-19T03:59:35;26.00;;;20.40;;
49860;SDS011;35761;48.826;9.238;2022-08-19T04:02:06;27.65;;;19.55;;
49860;SDS011;35761;48.826;9.238;2022-08-19T04:04:37;26.85;;;20.73;;
49860;SDS011;35761;48.826;9.238;2022-08-19T04:07:09;26.13;;;19.40;;
49860;SDS011;35761;48.826;9.238;2022-08-19T04:09:42;23.75;;;19.15;;
49860;SDS011;35761;48.826;9.238;2022-08-19T04:12:12;25.23;;;20.35;;
49860;SDS011;35761;48.826;9.238;2022-08-19T04:14:41;24.35;;;19.60;;
49860;SDS011;35761;48.826;9.238;2022-08-19T04:17:09;26.00;;;21.42;;
49860;SDS011;35761;48.826;9.238;2022-08-19T04:19:39;27.35;;;23.55;;
49860;SDS011;35761;48.826;9.238;2022-08-19T04:22:09;27.80;;;21.58;;
49860;SDS011;35761;48.826;9.238;2022-08-19T04:24:39;23.48;;;19.50;;
49860;SDS011;35761;48.826;9.238;2022-08-19T04:27:07;24.52;;;19.70;;
49860;SDS011;35761;48.826;9.238;2022-08-19T04:29:37;26.70;;;20.75;;
49860;SDS011;35761;48.826;9.238;2022-08-19T04:32:06;25.42;;;20.65;;
49860;SDS011;35761;48.826;9.238;2022-08-19T04:34:35;28.48;;;20.42;;
49860;SDS011;35761;48.826;9.238;2022-08-19T04:37:24;29.33;;;20.70;;
49860;SDS011;35761;48.826;9.238;2022-08-19T04:40:01;26.67;;;19.83;;
49860;SDS011;35761;48.826;9.238;2022-08-19T04:42:50;28.08;;;21.13;;
49860;SDS011;35761;48.826;9.238;2022-08-19T04:45:21;26.40;;;20.73;;
49860;SDS011;35761;48.826;9.238;2022-08-19T04:47:54;27.80;;;20.77;;
49860;SDS011;35761;48.826;9.238;2022-08-19T04:50:43;29.08;;;21.10;;
49860;SDS011;35761;48.826;9.238;2022-08-19T04:53:12;29.38;;;20.75;;
49860;SDS011;35761;48.826;9.238;2022-08-19T04:55:40;26.23;;;21.33;;
49860;SDS011;35761;48.826;9.238;2022-08-19T04:58:09;28.55;;;21.67;;
49860;SDS011;35761;48.826;9.238;2022-08-19T05:00:39;28.23;;;21.35;;
49860;SDS011;35761;48.826;9.238;2022-08-19T05:03:08;30.50;;;21.40;;
49860;SDS011;35761;48.826;9.238;2022-08-19T05:05:38;24.55;;;20.80;;
49860;SDS011;35761;48.826;9.238;2022-08-19T05:08:11;26.97;;;21.00;;
49860;SDS011;35761;48.826;9.238;2022-08-19T05:10:56;24.65;;;20.52;;
49860;SDS011;35761;48.826;9.238;2022-08-19T05:13:25;26.40;;;20.45;;
49860;SDS011;35761;48.826;9.238;2022-08-19T05:15:55;29.55;;;21.63;;
49860;SDS011;35761;48.826;9.238;2022-08-19T05:18:25;30.70;;;21.77;;
49860;SDS011;35761;48.826;9.238;2022-08-19T05:21:12;29.38;;;21.33;;
49860;SDS011;35761;48.826;9.238;2022-08-19T05:24:12;34.33;;;22.35;;
49860;SDS011;35761;48.826;9.238;2022-08-19T05:26:42;32.33;;;21.15;;
49860;SDS011;35761;48.826;9.238;2022-08-19T05:29:14;27.75;;;21.10;;
49860;SDS011;35761;48.826;9.238;2022-08-19T05:31:49;23.63;;;19.90;;
49860;SDS011;35761;48.826;9.238;2022-08-19T05:34:20;24.40;;;21.15;;
49860;SDS011;35761;48.826;9.238;2022-08-19T05:36:54;33.05;;;21.23;;
49860;SDS011;35761;48.826;9.238;2022-08-19T05:39:26;25.58;;;21.10;;
49860;SDS011;35761;48.826;9.238;2022-08-19T05:41:57;26.92;;;20.42;;
49860;SDS011;35761;48.826;9.238;2022-08-19T05:44:29;24.55;;;20.73;;
49860;SDS011;35761;48.826;9.238;2022-08-19T05:47:00;26.23;;;21.35;;
49860;SDS011;35761;48.826;9.238;2022-08-19T05:49:32;24.02;;;20.45;;
49860;SDS011;35761;48.826;9.238;2022-08-19T05:52:02;26.33;;;20.60;;
49860;SDS011;35761;48.826;9.238;2022-08-19T05:54:32;27.33;;;21.20;;
49860;SDS011;35761;48.826;9.238;2022-08-19T05:57:02;27.58;;;21.00;;
49860;SDS011;35761;48.826;9.238;2022-08-19T05:59:31;26.65;;;20.38;;
49860;SDS011;35761;48.826;9.238;2022-08-19T06:02:06;24.75;;;20.77;;
49860;SDS011;35761;48.826;9.238;2022-08-19T06:04:34;27.13;;;19.92;;
49860;SDS011;35761;48.826;9.238;2022-08-19T06:07:03;29.33;;;21.02;;
49860;SDS011;35761;48.826;9.238;2022-08-19T06:09:38;23.85;;;20.27;;
49860;SDS011;35761;48.826;9.238;2022-08-19T06:12:09;29.75;;;20.33;;
49860;SDS011;35761;48.826;9.238;2022-08-19T06:14:37;25.67;;;21.63;;
49860;SDS011;35761;48.826;9.238;2022-08-19T06:17:08;26.73;;;20.20;;
49860;SDS011;35761;48.826;9.238;2022-08-19T06:19:37;26.27;;;21.58;;
49860;SDS011;35761;48.826;9.238;2022-08-19T06:22:07;27.15;;;20.95;;
49860;SDS011;35761;48.826;9.238;2022-08-19T06:24:38;32.88;;;21.63;;
49860;SDS011;35761;48.826;9.238;2022-08-19T06:27:06;29.30;;;21.58;;
49860;SDS011;35761;48.826;9.238;2022-08-19T06:29:35;32.92;;;21.02;;
49860;SDS011;35761;48.826;9.238;2022-08-19T06:32:03;26.92;;;21.20;;
49860;SDS011;35761;48.826;9.238;2022-08-19T06:34:33;31.95;;;21.67;;
49860;SDS011;35761;48.826;9.238;2022-08-19T06:37:02;30.08;;;21.20;;
49860;SDS011;35761;48.826;9.238;2022-08-19T06:39:34;29.98;;;22.80;;
49860;SDS011;35761;48.826;9.238;2022-08-19T06:42:07;31.13;;;22.52;;
49860;SDS011;35761;48.826;9.238;2022-08-19T06:44:39;33.60;;;21.95;;
49860;SDS011;35761;48.826;9.238;2022-08-19T06:47:15;35.30;;;20.83;;
49860;SDS011;35761;48.826;9.238;2022-08-19T06:49:54;29.35;;;21.48;;
49860;SDS011;35761;48.826;9.238;2022-08-19T06:52:28;31.20;;;21.63;;
49860;SDS011;35761;48.826;9.238;2022-08-19T06:55:00;30.45;;;21.70;;
49860;SDS011;35761;48.826;9.238;2022-08-19T06:57:32;31.02;;;22.35;;
49860;SDS011;35761;48.826;9.238;2022-08-19T07:00:00;28.00;;;22.17;;
49860;SDS011;35761;48.826;9.238;2022-08-19T07:02:30;28.33;;;21.08;;
49860;SDS011;35761;48.826;9.238;2022-08-19T07:05:00;27.75;;;22.08;;
49860;SDS011;35761;48.826;9.238;2022-08-19T07:07:32;28.38;;;20.92;;
49860;SDS011;35761;48.826;9.238;2022-08-19T07:10:01;25.60;;;21.52;;
49860;SDS011;35761;48.826;9.238;2022-08-19T07:12:33;26.30;;;21.08;;
49860;SDS011;35761;48.826;9.238;2022-08-19T07:15:04;25.85;;;20.90;;
49860;SDS011;35761;48.826;9.238;2022-08-19T07:17:35;30.38;;;21.85;;
49860;SDS011;35761;48.826;9.238;2022-08-19T07:20:09;29.33;;;20.80;;
49860;SDS011;35761;48.826;9.238;2022-08-19T07:22:38;22.40;;;19.85;;
49860;SDS011;35761;48.826;9.238;2022-08-19T07:25:07;28.00;;;20.67;;
49860;SDS011;35761;48.826;9.238;2022-08-19T07:27:37;27.10;;;19.95;;
49860;SDS011;35761;48.826;9.238;2022-08-19T07:30:07;28.98;;;21.02;;
49860;SDS011;35761;48.826;9.238;2022-08-19T07:32:39;28.20;;;20.65;;
49860;SDS011;35761;48.826;9.238;2022-08-19T07:35:10;23.65;;;20.45;;
49860;SDS011;35761;48.826;9.238;2022-08-19T07:37:38;29.15;;;20.77;;
49860;SDS011;35761;48.826;9.238;2022-08-19T07:40:10;31.02;;;20.17;;
49860;SDS011;35761;48.826;9.238;2022-08-19T07:42:39;30.33;;;19.45;;
49860;SDS011;35761;48.826;9.238;2022-08-19T07:45:09;24.60;;;20.30;;
49860;SDS011;35761;48.826;9.238;2022-08-19T07:47:38;28.08;;;18.70;;
49860;SDS011;35761;48.826;9.238;2022-08-19T07:50:18;27.65;;;19.92;;
49860;SDS011;35761;48.826;9.238;2022-08-19T07:52:48;24.42;;;18.50;;
49860;SDS011;35761;48.826;9.238;2022-08-19T07:55:19;22.90;;;18.63;;
49860;SDS011;35761;48.826;9.238;2022-08-19T07:58:08;23.10;;;18.50;;
49860;SDS011;35761;48.826;9.238;2022-08-19T08:00:38;23.60;;;18.27;;
49860;SDS011;35761;48.826;9.238;2022-08-19T08:03:08;25.40;;;19.48;;
49860;SDS011;35761;48.826;9.238;2022-08-19T08:05:38;24.30;;;19.08;;
49860;SDS011;35761;48.826;9.238;2022-08-19T08:08:24;25.00;;;18.98;;
49860;SDS011;35761;48.826;9.238;2022-08-19T08:11:14;23.65;;;19.30;;
49860;SDS011;35761;48.826;9.238;2022-08-19T08:13:46;24.40;;;18.85;;
49860;SDS011;35761;48.826;9.238;2022-08-19T08:16:30;24.25;;;18.92;;
49860;SDS011;35761;48.826;9.238;2022-08-19T08:19:13;22.45;;;17.05;;
49860;SDS011;35761;48.826;9.238;2022-08-19T08:21:52;25.25;;;19.00;;
49860;SDS011;35761;48.826;9.238;2022-08-19T08:24:25;22.75;;;17.60;;
49860;SDS011;35761;48.826;9.238;2022-08-19T08:26:57;21.42;;;17.25;;
49860;SDS011;35761;48.826;9.238;2022-08-19T08:29:36;26.15;;;19.02;;
49860;SDS011;35761;48.826;9.238;2022-08-19T08:32:07;22.55;;;17.90;;
49860;SDS011;35761;48.826;9.238;2022-08-19T08:34:40;28.90;;;18.45;;
49860;SDS011;35761;48.826;9.238;2022-08-19T08:37:10;22.73;;;17.77;;
49860;SDS011;35761;48.826;9.238;2022-08-19T08:39:41;22.55;;;17.75;;
49860;SDS011;35761;48.826;9.238;2022-08-19T08:42:11;25.20;;;18.00;;
49860;SDS011;35761;48.826;9.238;2022-08-19T08:44:48;20.55;;;17.52;;
49860;SDS011;35761;48.826;9.238;2022-08-19T08:47:28;28.95;;;17.65;;
49860;SDS011;35761;48.826;9.238;2022-08-19T08:50:08;21.95;;;18.02;;
49860;SDS011;35761;48.826;9.238;2022-08-19T08:52:44;23.80;;;18.23;;
49860;SDS011;35761;48.826;9.238;2022-08-19T08:55:16;25.83;;;17.95;;
49860;SDS011;35761;48.826;9.238;2022-08-19T08:57:50;23.88;;;16.63;;
49860;SDS011;35761;48.826;9.238;2022-08-19T09:00:24;24.42;;;19.25;;
49860;SDS011;35761;48.826;9.238;2022-08-19T09:02:54;27.85;;;17.40;;
49860;SDS011;35761;48.826;9.238;2022-08-19T09:05:30;27.02;;;17.25;;
49860;SDS011;35761;48.826;9.238;2022-08-19T09:08:17;22.70;;;17.05;;
49860;SDS011;35761;48.826;9.238;2022-08-19T09:10:56;20.67;;;15.90;;
49860;SDS011;35761;48.826;9.238;2022-08-19T09:13:27;20.05;;;15.77;;
49860;SDS011;35761;48.826;9.238;2022-08-19T09:16:04;24.77;;;17.73;;
49860;SDS011;35761;48.826;9.238;2022-08-19T09:18:39;20.83;;;16.00;;
49860;SDS011;35761;48.826;9.238;2022-08-19T09:21:09;21.02;;;16.73;;
49860;SDS011;35761;48.826;9.238;2022-08-19T09:23:39;22.02;;;16.05;;
49860;SDS011;35761;48.826;9.238;2022-08-19T09:26:11;22.13;;;16.95;;
49860;SDS011;35761;48.826;9.238;2022-08-19T09:28:42;20.70;;;16.52;;
49860;SDS011;35761;48.826;9.238;2022-08-19T09:31:15;24.98;;;15.93;;
49860;SDS011;35761;48.826;9.238;2022-08-19T09:33:47;21.52;;;15.82;;
49860;SDS011;35761;48.826;9.238;2022-08-19T09:36:18;24.50;;;16.60;;
49860;SDS011;35761;48.826;9.238;2022-08-19T09:39:02;21.90;;;15.27;;
49860;SDS011;35761;48.826;9.238;2022-08-19T09:41:42;24.05;;;15.02;;
49860;SDS011;35761;48.826;9.238;2022-08-19T09:44:14;20.55;;;14.98;;
49860;SDS011;35761;48.826;9.238;2022-08-19T09:46:44;20.77;;;14.48;;
49860;SDS011;35761;48.826;9.238;2022-08-19T09:49:14;19.73;;;14.80;;
49860;SDS011;35761;48.826;9.238;2022-08-19T09:51:44;16.95;;;13.27;;
49860;SDS011;35761;48.826;9.238;2022-08-19T09:54:18;24.20;;;15.07;;
49860;SDS011;35761;48.826;9.238;2022-08-19T09:56:50;19.58;;;13.80;;
49860;SDS011;35761;48.826;9.238;2022-08-19T09:59:20;18.80;;;14.98;;
49860;SDS011;35761;48.826;9.238;2022-08-19T10:01:49;20.52;;;13.18;;
49860;SDS011;35761;48.826;9.238;2022-08-19T10:04:18;18.95;;;13.60;;
49860;SDS011;35761;48.826;9.238;2022-08-19T10:06:48;16.98;;;12.50;;
49860;SDS011;35761;48.826;9.238;2022-08-19T10:09:20;16.17;;;13.18;;
49860;SDS011;35761;48.826;9.238;2022-08-19T10:12:00;22.60;;;13.02;;
49860;SDS011;35761;48.826;9.238;2022-08-19T10:14:31;19.05;;;12.73;;
49860;SDS011;35761;48.826;9.238;2022-08-19T10:17:00;16.83;;;12.23;;
49860;SDS011;35761;48.826;9.238;2022-08-19T10:19:47;15.68;;;11.93;;
49860;SDS011;35761;48.826;9.238;2022-08-19T10:22:20;17.30;;;12.00;;
49860;SDS011;35761;48.826;9.238;2022-08-19T10:24:53;15.65;;;11.40;;
49860;SDS011;35761;48.826;9.238;2022-08-19T10:27:21;19.85;;;12.30;;
49860;SDS011;35761;48.826;9.238;2022-08-19T10:29:52;15.93;;;12.10;;
49860;SDS011;35761;48.826;9.238;2022-08-19T10:32:20;17.67;;;13.98;;
49860;SDS011;35761;48.826;9.238;2022-08-19T10:34:59;18.52;;;12.43;;
49860;SDS011;35761;48.826;9.238;2022-08-19T10:37:31;21.00;;;12.30;;
49860;SDS011;35761;48.826;9.238;2022-08-19T10:40:02;19.45;;;11.45;;
49860;SDS011;35761;48.826;9.238;2022-08-19T10:42:34;17.92;;;10.98;;
49860;SDS011;35761;48.826;9.238;2022-08-19T10:45:03;18.33;;;11.55;;
49860;SDS011;35761;48.826;9.238;2022-08-19T10:47:33;17.15;;;11.52;;
49860;SDS011;35761;48.826;9.238;2022-08-19T10:50:02;17.42;;;11.38;;
49860;SDS011;35761;48.826;9.238;2022-08-19T10:52:55;19.20;;;11.05;;
49860;SDS011;35761;48.826;9.238;2022-08-19T10:55:25;19.17;;;10.55;;
49860;SDS011;35761;48.826;9.238;2022-08-19T10:58:11;17.75;;;9.63;;
49860;SDS011;35761;48.826;9.238;2022-08-19T11:00:41;12.88;;;9.18;;
49860;SDS011;35761;48.826;9.238;2022-08-19T11:03:10;18.58;;;9.75;;
49860;SDS011;35761;48.826;9.238;2022-08-19T11:05:39;13.57;;;9.63;;
49860;SDS011;35761;48.826;9.238;2022-08-19T11:08:08;14.23;;;8.50;;
49860;SDS011;35761;48.826;9.238;2022-08-19T11:10:51;10.50;;;7.97;;
49860;SDS011;35761;48.826;9.238;2022-08-19T11:13:21;10.32;;;7.03;;
49860;SDS011;35761;48.826;9.238;2022-08-19T11:15:57;12.43;;;7.35;;
49860;SDS011;35761;48.826;9.238;2022-08-19T11:18:33;12.70;;;8.45;;
49860;SDS011;35761;48.826;9.238;2022-08-19T11:21:07;13.10;;;7.38;;
49860;SDS011;35761;48.826;9.238;2022-08-19T11:23:39;15.88;;;6.72;;
49860;SDS011;35761;48.826;9.238;2022-08-19T11:26:09;15.68;;;7.60;;
49860;SDS011;35761;48.826;9.238;2022-08-19T11:28:40;10.00;;;7.20;;
49860;SDS011;35761;48.826;9.238;2022-08-19T11:31:10;14.73;;;8.07;;
49860;SDS011;35761;48.826;9.238;2022-08-19T11:33:39;9.07;;;7.25;;
49860;SDS011;35761;48.826;9.238;2022-08-19T11:36:13;10.00;;;6.95;;
49860;SDS011;35761;48.826;9.238;2022-08-19T11:38:43;14.15;;;7.93;;
49860;SDS011;35761;48.826;9.238;2022-08-19T11:41:15;12.27;;;7.05;;
49860;SDS011;35761;48.826;9.238;2022-08-19T11:43:46;10.25;;;6.45;;
49860;SDS011;35761;48.826;9.238;2022-08-19T11:46:15;11.40;;;7.57;;
49860;SDS011;35761;48.826;9.238;2022-08-19T11:48:44;13.57;;;7.32;;
49860;SDS011;35761;48.826;9.238;2022-08-19T11:51:21;16.15;;;7.32;;
49860;SDS011;35761;48.826;9.238;2022-08-19T11:53:52;15.32;;;8.35;;
49860;SDS011;35761;48.826;9.238;2022-08-19T11:56:24;16.15;;;7.43;;
49860;SDS011;35761;48.826;9.238;2022-08-19T11:58:54;15.07;;;7.45;;
49860;SDS011;35761;48.826;9.238;2022-08-19T12:01:25;12.30;;;7.72;;
49860;SDS011;35761;48.826;9.238;2022-08-19T12:03:55;15.07;;;7.68;;
49860;SDS011;35761;48.826;9.238;2022-08-19T12:06:25;10.43;;;6.57;;
49860;SDS011;35761;48.826;9.238;2022-08-19T12:09:00;10.07;;;6.40;;
49860;SDS011;35761;48.826;9.238;2022-08-19T12:11:33;9.20;;;7.10;;
49860;SDS011;35761;48.826;9.238;2022-08-19T12:14:03;11.98;;;7.07;;
49860;SDS011;35761;48.826;9.238;2022-08-19T12:16:31;10.80;;;6.20;;
49860;SDS011;35761;48.826;9.238;2022-08-19T12:19:05;11.55;;;6.85;;
49860;SDS011;35761;48.826;9.238;2022-08-19T12:21:34;11.80;;;6.22;;
49860;SDS011;35761;48.826;9.238;2022-08-19T12:24:03;11.85;;;7.15;;
49860;SDS011;35761;48.826;9.238;2022-08-19T12:26:35;11.20;;;6.30;;
49860;SDS011;35761;48.826;9.238;2022-08-19T12:29:19;10.00;;;7.05;;
49860;SDS011;35761;48.826;9.238;2022-08-19T12:31:54;10.90;;;7.28;;
49860;SDS011;35761;48.826;9.238;2022-08-19T12:34:27;10.15;;;7.10;;
49860;SDS011;35761;48.826;9.238;2022-08-19T12:36:57;10.13;;;7.07;;
49860;SDS011;35761;48.826;9.238;2022-08-19T12:39:28;13.30;;;7.40;;
49860;SDS011;35761;48.826;9.238;2022-08-19T12:41:58;26.88;;;21.83;;
49860;SDS011;35761;48.826;9.238;2022-08-19T12:44:27;25.73;;;16.80;;
49860;SDS011;35761;48.826;9.238;2022-08-19T12:46:59;17.48;;;11.82;;
49860;SDS011;35761;48.826;9.238;2022-08-19T12:49:31;19.13;;;13.45;;
49860;SDS011;35761;48.826;9.238;2022-08-19T12:52:21;20.55;;;15.02;;
49860;SDS011;35761;48.826;9.238;2022-08-19T12:54:51;23.30;;;16.27;;
49860;SDS011;35761;48.826;9.238;2022-08-19T12:57:23;17.17;;;14.80;;
49860;SDS011;35761;48.826;9.238;2022-08-19T12:59:57;21.67;;;15.60;;
49860;SDS011;35761;48.826;9.238;2022-08-19T13:02:30;23.98;;;16.10;;
49860;SDS011;35761;48.826;9.238;2022-08-19T13:05:05;21.63;;;15.88;;
49860;SDS011;35761;48.826;9.238;2022-08-19T13:07:38;24.33;;;17.17;;
49860;SDS011;35761;48.826;9.238;2022-08-19T13:10:08;23.98;;;15.93;;
49860;SDS011;35761;48.826;9.238;2022-08-19T13:12:43;23.13;;;17.70;;
49860;SDS011;35761;48.826;9.238;2022-08-19T13:15:13;25.48;;;17.98;;
49860;SDS011;35761;48.826;9.238;2022-08-19T13:17:50;18.70;;;15.30;;
49860;SDS011;35761;48.826;9.238;2022-08-19T13:20:22;17.75;;;13.75;;
49860;SDS011;35761;48.826;9.238;2022-08-19T13:22:52;19.20;;;15.38;;
49860;SDS011;35761;48.826;9.238;2022-08-19T13:25:21;22.92;;;19.20;;
49860;SDS011;35761;48.826;9.238;2022-08-19T13:27:51;21.42;;;15.77;;
49860;SDS011;35761;48.826;9.238;2022-08-19T13:30:21;25.63;;;18.05;;
49860;SDS011;35761;48.826;9.238;2022-08-19T13:33:07;24.23;;;18.75;;
49860;SDS011;35761;48.826;9.238;2022-08-19T13:35:43;23.02;;;18.90;;
49860;SDS011;35761;48.826;9.238;2022-08-19T13:38:14;26.15;;;20.30;;
49860;SDS011;35761;48.826;9.238;2022-08-19T13:40:47;23.27;;;18.15;;
49860;SDS011;35761;48.826;9.238;2022-08-19T13:43:19;22.63;;;18.27;;
49860;SDS011;35761;48.826;9.238;2022-08-19T13:45:51;26.50;;;19.48;;
49860;SDS011;35761;48.826;9.238;2022-08-19T13:48:23;20.33;;;17.15;;
49860;SDS011;35761;48.826;9.238;2022-08-19T13:50:53;22.55;;;18.50;;
49860;SDS011;35761;48.826;9.238;2022-08-19T13:53:23;23.33;;;20.45;;
49860;SDS011;35761;48.826;9.238;2022-08-19T13:55:51;24.63;;;21.13;;
49860;SDS011;35761;48.826;9.238;2022-08-19T13:58:22;24.88;;;20.13;;
49860;SDS011;35761;48.826;9.238;2022-08-19T14:00:50;27.27;;;21.15;;
49860;SDS011;35761;48.826;9.238;2022-08-19T14:03:19;26.83;;;21.33;;
49860;SDS011;35761;48.826;9.238;2022-08-19T14:05:47;26.40;;;20.10;;
49860;SDS011;35761;48.826;9.238;2022-08-19T14:08:16;25.48;;;22.25;;
49860;SDS011;35761;48.826;9.238;2022-08-19T14:10:45;28.10;;;23.02;;
49860;SDS011;35761;48.826;9.238;2022-08-19T14:13:15;33.30;;;22.80;;
49860;SDS011;35761;48.826;9.238;2022-08-19T14:15:48;29.15;;;23.70;;
49860;SDS011;35761;48.826;9.238;2022-08-19T14:18:17;26.55;;;23.60;;
49860;SDS011;35761;48.826;9.238;2022-08-19T14:20:46;32.40;;;24.52;;
49860;SDS011;35761;48.826;9.238;2022-08-19T14:23:15;31.92;;;24.67;;
49860;SDS011;35761;48.826;9.238;2022-08-19T14:25:44;30.85;;;26.00;;
49860;SDS011;35761;48.826;9.238;2022-08-19T14:28:12;28.90;;;25.42;;
49860;SDS011;35761;48.826;9.238;2022-08-19T14:30:41;34.35;;;26.40;;
49860;SDS011;35761;48.826;9.238;2022-08-19T14:33:12;30.20;;;20.27;;
49860;SDS011;35761;48.826;9.238;2022-08-19T14:35:40;35.30;;;26.63;;
49860;SDS011;35761;48.826;9.238;2022-08-19T14:38:14;35.67;;;26.70;;
49860;SDS011;35761;48.826;9.238;2022-08-19T14:41:04;33.90;;;25.77;;
49860;SDS011;35761;48.826;9.238;2022-08-19T14:43:39;34.63;;;26.85;;
49860;SDS011;35761;48.826;9.238;2022-08-19T14:46:08;31.83;;;26.10;;
49860;SDS011;35761;48.826;9.238;2022-08-19T14:48:40;31.98;;;25.83;;
49860;SDS011;35761;48.826;9.238;2022-08-19T14:51:09;34.22;;;27.50;;
49860;SDS011;35761;48.826;9.238;2022-08-19T14:53:37;28.73;;;23.98;;